sensor_id;sensor_type;location;lat;lon;timestamp;temperature;humidity
57390;DHT22;43217;52.694;6.214;2023-08-08T00:01:25;13.70;99.90
57390;DHT22;43217;52.694;6.214;2023-08-08T00:03:51;13.70;99.90
57390;DHT22;43217;52.694;6.214;2023-08-08T00:06:16;13.80;99.90
57390;DHT22;43217;52.694;6.214;2023-08-08T00:08:42;13.80;99.90
57390;DHT22;43217;52.694;6.214;2023-08-08T00:11:08;13.80;99.90
57390;DHT22;43217;52.694;6.214;2023-08-08T00:13:33;13.90;99.90
57390;DHT22;43217;52.694;6.214;2023-08-08T00:15:59;13.90;99.90
57390;DHT22;43217;52.694;6.214;2023-08-08T00:18:25;13.90;99.90
57390;DHT22;43217;52.694;6.214;2023-08-08T00:20:51;13.90;99.90
57390;DHT22;43217;52.694;6.214;2023-08-08T00:23:16;14.00;99.90
57390;DHT22;43217;52.694;6.214;2023-08-08T00:25:42;14.00;99.90
57390;DHT22;43217;52.694;6.214;2023-08-08T00:28:07;14.00;99.90
57390;DHT22;43217;52.694;6.214;2023-08-08T00:30:33;14.10;99.90
57390;DHT22;43217;52.694;6.214;2023-08-08T00:32:59;14.00;99.90
57390;DHT22;43217;52.694;6.214;2023-08-08T00:35:24;14.10;99.90
57390;DHT22;43217;52.694;6.214;2023-08-08T00:37:50;14.10;99.90
57390;DHT22;43217;52.694;6.214;2023-08-08T00:40:15;14.10;99.90
57390;DHT22;43217;52.694;6.214;2023-08-08T00:42:41;14.10;99.90
57390;DHT22;43217;52.694;6.214;2023-08-08T00:45:07;14.10;99.90
57390;DHT22;43217;52.694;6.214;2023-08-08T00:47:34;14.20;99.90
57390;DHT22;43217;52.694;6.214;2023-08-08T00:50:01;14.20;99.90
57390;DHT22;43217;52.694;6.214;2023-08-08T00:52:28;14.20;99.90
57390;DHT22;43217;52.694;6.214;2023-08-08T00:54:54;14.20;99.90
57390;DHT22;43217;52.694;6.214;2023-08-08T00:57:20;14.20;99.90
57390;DHT22;43217;52.694;6.214;2023-08-08T00:59:45;14.20;99.90
57390;DHT22;43217;52.694;6.214;2023-08-08T01:02:11;14.20;99.90
57390;DHT22;43217;52.694;6.214;2023-08-08T01:04:37;14.20;99.90
57390;DHT22;43217;52.694;6.214;2023-08-08T01:10:18;14.20;99.90
57390;DHT22;43217;52.694;6.214;2023-08-08T01:12:52;14.10;99.90
57390;DHT22;43217;52.694;6.214;2023-08-08T01:15:18;14.10;99.90
57390;DHT22;43217;52.694;6.214;2023-08-08T01:17:46;14.10;99.90
57390;DHT22;43217;52.694;6.214;2023-08-08T01:20:12;14.10;99.90
57390;DHT22;43217;52.694;6.214;2023-08-08T01:23:03;14.20;99.90
57390;DHT22;43217;52.694;6.214;2023-08-08T01:25:34;14.10;99.90
57390;DHT22;43217;52.694;6.214;2023-08-08T01:28:00;14.20;99.90
57390;DHT22;43217;52.694;6.214;2023-08-08T01:30:26;14.20;99.90
57390;DHT22;43217;52.694;6.214;2023-08-08T01:32:52;14.20;99.90
57390;DHT22;43217;52.694;6.214;2023-08-08T01:35:18;14.20;99.90
57390;DHT22;43217;52.694;6.214;2023-08-08T01:37:50;14.20;99.90
57390;DHT22;43217;52.694;6.214;2023-08-08T01:40:17;14.20;99.90
57390;DHT22;43217;52.694;6.214;2023-08-08T01:42:47;14.20;99.90
57390;DHT22;43217;52.694;6.214;2023-08-08T01:45:14;14.20;99.90
57390;DHT22;43217;52.694;6.214;2023-08-08T01:47:41;14.20;99.90
57390;DHT22;43217;52.694;6.214;2023-08-08T01:50:07;14.20;99.90
57390;DHT22;43217;52.694;6.214;2023-08-08T01:52:34;14.20;99.90
57390;DHT22;43217;52.694;6.214;2023-08-08T01:55:00;14.20;99.90
57390;DHT22;43217;52.694;6.214;2023-08-08T01:57:26;14.20;99.90
57390;DHT22;43217;52.694;6.214;2023-08-08T01:59:53;14.30;99.90
57390;DHT22;43217;52.694;6.214;2023-08-08T02:02:18;14.30;99.90
57390;DHT22;43217;52.694;6.214;2023-08-08T02:04:44;14.30;99.90
57390;DHT22;43217;52.694;6.214;2023-08-08T02:07:10;14.30;99.90
57390;DHT22;43217;52.694;6.214;2023-08-08T02:09:36;14.30;99.90
57390;DHT22;43217;52.694;6.214;2023-08-08T02:12:01;14.30;99.90
57390;DHT22;43217;52.694;6.214;2023-08-08T02:14:27;14.30;99.90
57390;DHT22;43217;52.694;6.214;2023-08-08T02:16:53;14.30;99.90
57390;DHT22;43217;52.694;6.214;2023-08-08T02:19:18;14.40;99.90
57390;DHT22;43217;52.694;6.214;2023-08-08T02:21:44;14.30;99.90
57390;DHT22;43217;52.694;6.214;2023-08-08T02:24:09;14.30;99.90
57390;DHT22;43217;52.694;6.214;2023-08-08T02:26:35;14.30;99.90
57390;DHT22;43217;52.694;6.214;2023-08-08T02:29:01;14.30;99.90
57390;DHT22;43217;52.694;6.214;2023-08-08T02:31:26;14.30;99.90
57390;DHT22;43217;52.694;6.214;2023-08-08T02:33:52;14.30;99.90
57390;DHT22;43217;52.694;6.214;2023-08-08T02:36:18;14.30;99.90
57390;DHT22;43217;52.694;6.214;2023-08-08T02:38:44;14.30;99.90
57390;DHT22;43217;52.694;6.214;2023-08-08T02:41:10;14.30;99.90
57390;DHT22;43217;52.694;6.214;2023-08-08T02:43:35;14.30;99.90
57390;DHT22;43217;52.694;6.214;2023-08-08T02:46:01;14.30;99.90
57390;DHT22;43217;52.694;6.214;2023-08-08T02:48:28;14.30;99.90
57390;DHT22;43217;52.694;6.214;2023-08-08T02:50:54;14.30;99.90
57390;DHT22;43217;52.694;6.214;2023-08-08T02:53:20;14.30;99.90
57390;DHT22;43217;52.694;6.214;2023-08-08T02:55:46;14.30;99.90
57390;DHT22;43217;52.694;6.214;2023-08-08T02:58:12;14.30;99.90
57390;DHT22;43217;52.694;6.214;2023-08-08T03:00:37;14.30;99.90
57390;DHT22;43217;52.694;6.214;2023-08-08T03:03:03;14.30;99.90
57390;DHT22;43217;52.694;6.214;2023-08-08T03:05:29;14.30;99.90
57390;DHT22;43217;52.694;6.214;2023-08-08T03:07:54;14.30;99.90
57390;DHT22;43217;52.694;6.214;2023-08-08T03:10:20;14.30;99.90
57390;DHT22;43217;52.694;6.214;2023-08-08T03:12:46;14.30;99.90
57390;DHT22;43217;52.694;6.214;2023-08-08T03:15:11;14.30;99.90
57390;DHT22;43217;52.694;6.214;2023-08-08T03:17:37;14.30;99.90
57390;DHT22;43217;52.694;6.214;2023-08-08T03:20:03;14.30;99.90
57390;DHT22;43217;52.694;6.214;2023-08-08T03:22:31;14.30;99.90
57390;DHT22;43217;52.694;6.214;2023-08-08T03:24:57;14.30;99.90
57390;DHT22;43217;52.694;6.214;2023-08-08T03:27:22;14.30;99.90
57390;DHT22;43217;52.694;6.214;2023-08-08T03:29:48;14.30;99.90
57390;DHT22;43217;52.694;6.214;2023-08-08T03:32:14;14.30;99.90
57390;DHT22;43217;52.694;6.214;2023-08-08T03:34:40;14.30;99.90
57390;DHT22;43217;52.694;6.214;2023-08-08T03:37:05;14.20;99.90
57390;DHT22;43217;52.694;6.214;2023-08-08T03:39:31;14.20;99.90
57390;DHT22;43217;52.694;6.214;2023-08-08T03:41:57;14.20;99.90
57390;DHT22;43217;52.694;6.214;2023-08-08T03:44:22;14.20;99.90
57390;DHT22;43217;52.694;6.214;2023-08-08T03:46:48;14.20;99.90
57390;DHT22;43217;52.694;6.214;2023-08-08T03:49:15;14.20;99.90
57390;DHT22;43217;52.694;6.214;2023-08-08T03:51:40;14.20;99.90
57390;DHT22;43217;52.694;6.214;2023-08-08T03:54:06;14.20;99.90
57390;DHT22;43217;52.694;6.214;2023-08-08T03:56:32;14.10;99.90
57390;DHT22;43217;52.694;6.214;2023-08-08T03:58:58;14.10;99.90
57390;DHT22;43217;52.694;6.214;2023-08-08T04:01:24;14.10;99.90
57390;DHT22;43217;52.694;6.214;2023-08-08T04:03:49;14.10;99.90
57390;DHT22;43217;52.694;6.214;2023-08-08T04:06:18;14.10;99.90
57390;DHT22;43217;52.694;6.214;2023-08-08T04:08:43;14.10;99.90
57390;DHT22;43217;52.694;6.214;2023-08-08T04:11:09;14.20;99.90
57390;DHT22;43217;52.694;6.214;2023-08-08T04:13:34;14.10;99.90
57390;DHT22;43217;52.694;6.214;2023-08-08T04:16:02;14.10;99.90
57390;DHT22;43217;52.694;6.214;2023-08-08T04:18:28;14.20;99.90
57390;DHT22;43217;52.694;6.214;2023-08-08T04:20:55;14.10;99.90
57390;DHT22;43217;52.694;6.214;2023-08-08T04:23:21;14.10;99.90
57390;DHT22;43217;52.694;6.214;2023-08-08T04:25:51;14.10;99.90
57390;DHT22;43217;52.694;6.214;2023-08-08T04:28:17;14.10;99.90
57390;DHT22;43217;52.694;6.214;2023-08-08T04:30:42;14.10;99.90
57390;DHT22;43217;52.694;6.214;2023-08-08T04:33:08;14.10;99.90
57390;DHT22;43217;52.694;6.214;2023-08-08T04:35:34;14.10;99.90
57390;DHT22;43217;52.694;6.214;2023-08-08T04:37:59;14.10;99.90
57390;DHT22;43217;52.694;6.214;2023-08-08T04:40:25;14.10;99.90
57390;DHT22;43217;52.694;6.214;2023-08-08T04:42:51;14.20;99.90
57390;DHT22;43217;52.694;6.214;2023-08-08T04:45:17;14.10;99.90
57390;DHT22;43217;52.694;6.214;2023-08-08T04:47:42;14.10;99.90
57390;DHT22;43217;52.694;6.214;2023-08-08T04:50:09;14.10;99.90
57390;DHT22;43217;52.694;6.214;2023-08-08T04:52:35;14.20;99.90
57390;DHT22;43217;52.694;6.214;2023-08-08T04:55:01;14.20;99.90
57390;DHT22;43217;52.694;6.214;2023-08-08T04:57:26;14.20;99.90
57390;DHT22;43217;52.694;6.214;2023-08-08T04:59:52;14.20;99.90
57390;DHT22;43217;52.694;6.214;2023-08-08T05:02:17;14.20;99.90
57390;DHT22;43217;52.694;6.214;2023-08-08T05:04:43;14.20;99.90
57390;DHT22;43217;52.694;6.214;2023-08-08T05:07:09;14.20;99.90
57390;DHT22;43217;52.694;6.214;2023-08-08T05:09:34;14.20;99.90
57390;DHT22;43217;52.694;6.214;2023-08-08T05:12:00;14.30;99.90
57390;DHT22;43217;52.694;6.214;2023-08-08T05:14:26;14.30;99.90
57390;DHT22;43217;52.694;6.214;2023-08-08T05:16:51;14.30;99.90
57390;DHT22;43217;52.694;6.214;2023-08-08T05:19:17;14.40;99.90
57390;DHT22;43217;52.694;6.214;2023-08-08T05:21:43;14.40;99.90
57390;DHT22;43217;52.694;6.214;2023-08-08T05:24:08;14.40;99.90
57390;DHT22;43217;52.694;6.214;2023-08-08T05:26:34;14.40;99.90
57390;DHT22;43217;52.694;6.214;2023-08-08T05:29:00;14.40;99.90
57390;DHT22;43217;52.694;6.214;2023-08-08T05:31:25;14.40;99.90
57390;DHT22;43217;52.694;6.214;2023-08-08T05:33:51;14.40;99.90
57390;DHT22;43217;52.694;6.214;2023-08-08T05:36:19;14.40;99.90
57390;DHT22;43217;52.694;6.214;2023-08-08T05:38:44;14.40;99.90
57390;DHT22;43217;52.694;6.214;2023-08-08T05:41:10;14.50;99.90
57390;DHT22;43217;52.694;6.214;2023-08-08T05:43:36;14.50;99.90
57390;DHT22;43217;52.694;6.214;2023-08-08T05:46:02;14.70;99.90
57390;DHT22;43217;52.694;6.214;2023-08-08T05:48:27;14.80;99.90
57390;DHT22;43217;52.694;6.214;2023-08-08T05:50:53;15.00;99.90
57390;DHT22;43217;52.694;6.214;2023-08-08T05:53:19;15.10;99.90
57390;DHT22;43217;52.694;6.214;2023-08-08T05:55:45;15.10;99.90
57390;DHT22;43217;52.694;6.214;2023-08-08T05:58:10;15.30;99.90
57390;DHT22;43217;52.694;6.214;2023-08-08T06:00:36;15.40;99.90
57390;DHT22;43217;52.694;6.214;2023-08-08T06:03:02;15.50;99.90
57390;DHT22;43217;52.694;6.214;2023-08-08T06:05:28;15.60;99.90
57390;DHT22;43217;52.694;6.214;2023-08-08T06:07:54;15.60;99.90
57390;DHT22;43217;52.694;6.214;2023-08-08T06:10:21;15.70;99.90
57390;DHT22;43217;52.694;6.214;2023-08-08T06:12:47;15.80;99.90
57390;DHT22;43217;52.694;6.214;2023-08-08T06:15:13;16.00;99.90
57390;DHT22;43217;52.694;6.214;2023-08-08T06:17:39;16.10;99.90
57390;DHT22;43217;52.694;6.214;2023-08-08T06:20:05;16.20;99.90
57390;DHT22;43217;52.694;6.214;2023-08-08T06:22:32;16.30;99.90
57390;DHT22;43217;52.694;6.214;2023-08-08T06:24:57;16.40;99.90
57390;DHT22;43217;52.694;6.214;2023-08-08T06:27:23;16.40;99.90
57390;DHT22;43217;52.694;6.214;2023-08-08T06:29:49;16.50;99.90
57390;DHT22;43217;52.694;6.214;2023-08-08T06:32:16;16.60;99.90
57390;DHT22;43217;52.694;6.214;2023-08-08T06:34:42;16.60;99.90
57390;DHT22;43217;52.694;6.214;2023-08-08T06:37:08;16.70;99.90
57390;DHT22;43217;52.694;6.214;2023-08-08T06:39:33;16.90;99.90
57390;DHT22;43217;52.694;6.214;2023-08-08T06:42:00;17.10;99.90
57390;DHT22;43217;52.694;6.214;2023-08-08T06:44:25;17.50;99.90
57390;DHT22;43217;52.694;6.214;2023-08-08T06:46:51;18.10;99.90
57390;DHT22;43217;52.694;6.214;2023-08-08T06:49:17;18.70;99.90
57390;DHT22;43217;52.694;6.214;2023-08-08T06:51:44;19.40;99.90
57390;DHT22;43217;52.694;6.214;2023-08-08T06:54:10;20.20;99.90
57390;DHT22;43217;52.694;6.214;2023-08-08T06:56:35;20.90;99.90
57390;DHT22;43217;52.694;6.214;2023-08-08T06:59:01;21.50;99.90
57390;DHT22;43217;52.694;6.214;2023-08-08T07:01:27;22.20;99.90
57390;DHT22;43217;52.694;6.214;2023-08-08T07:03:52;22.80;99.90
57390;DHT22;43217;52.694;6.214;2023-08-08T07:06:18;23.10;99.90
57390;DHT22;43217;52.694;6.214;2023-08-08T07:08:44;23.60;99.90
57390;DHT22;43217;52.694;6.214;2023-08-08T07:11:09;23.90;99.90
57390;DHT22;43217;52.694;6.214;2023-08-08T07:13:36;24.10;99.90
57390;DHT22;43217;52.694;6.214;2023-08-08T07:16:02;24.60;99.90
57390;DHT22;43217;52.694;6.214;2023-08-08T07:18:27;24.80;99.90
57390;DHT22;43217;52.694;6.214;2023-08-08T07:20:53;24.90;99.90
57390;DHT22;43217;52.694;6.214;2023-08-08T07:23:19;25.00;99.50
57390;DHT22;43217;52.694;6.214;2023-08-08T07:25:47;25.20;99.20
57390;DHT22;43217;52.694;6.214;2023-08-08T07:28:13;25.10;98.30
57390;DHT22;43217;52.694;6.214;2023-08-08T07:30:40;24.90;98.00
57390;DHT22;43217;52.694;6.214;2023-08-08T07:33:06;24.70;98.00
57390;DHT22;43217;52.694;6.214;2023-08-08T07:35:35;24.20;97.90
57390;DHT22;43217;52.694;6.214;2023-08-08T07:38:01;23.50;99.00
57390;DHT22;43217;52.694;6.214;2023-08-08T07:40:27;23.20;99.90
57390;DHT22;43217;52.694;6.214;2023-08-08T07:42:53;22.90;99.90
57390;DHT22;43217;52.694;6.214;2023-08-08T07:45:18;22.70;99.90
57390;DHT22;43217;52.694;6.214;2023-08-08T07:47:45;22.20;99.90
57390;DHT22;43217;52.694;6.214;2023-08-08T07:50:10;21.50;99.90
57390;DHT22;43217;52.694;6.214;2023-08-08T07:52:37;21.20;99.90
57390;DHT22;43217;52.694;6.214;2023-08-08T07:55:04;20.90;99.90
57390;DHT22;43217;52.694;6.214;2023-08-08T07:57:31;20.60;99.90
57390;DHT22;43217;52.694;6.214;2023-08-08T07:59:59;20.20;99.90
57390;DHT22;43217;52.694;6.214;2023-08-08T08:02:26;20.10;99.90
57390;DHT22;43217;52.694;6.214;2023-08-08T08:04:51;19.90;99.90
57390;DHT22;43217;52.694;6.214;2023-08-08T08:07:17;19.90;99.90
57390;DHT22;43217;52.694;6.214;2023-08-08T08:09:43;19.90;99.90
57390;DHT22;43217;52.694;6.214;2023-08-08T08:12:08;19.90;99.90
57390;DHT22;43217;52.694;6.214;2023-08-08T08:14:34;19.90;99.90
57390;DHT22;43217;52.694;6.214;2023-08-08T08:17:00;19.80;99.90
57390;DHT22;43217;52.694;6.214;2023-08-08T08:19:26;19.80;99.90
57390;DHT22;43217;52.694;6.214;2023-08-08T08:21:51;19.80;99.90
57390;DHT22;43217;52.694;6.214;2023-08-08T08:24:17;19.70;99.90
57390;DHT22;43217;52.694;6.214;2023-08-08T08:26:42;19.70;99.90
57390;DHT22;43217;52.694;6.214;2023-08-08T08:29:08;19.70;99.90
57390;DHT22;43217;52.694;6.214;2023-08-08T08:31:34;19.70;99.90
57390;DHT22;43217;52.694;6.214;2023-08-08T08:33:59;19.70;99.90
57390;DHT22;43217;52.694;6.214;2023-08-08T08:36:25;19.70;99.90
57390;DHT22;43217;52.694;6.214;2023-08-08T08:38:51;19.60;99.90
57390;DHT22;43217;52.694;6.214;2023-08-08T08:41:18;19.60;99.90
57390;DHT22;43217;52.694;6.214;2023-08-08T08:43:45;19.60;99.90
57390;DHT22;43217;52.694;6.214;2023-08-08T08:46:13;19.70;99.90
57390;DHT22;43217;52.694;6.214;2023-08-08T08:48:40;19.70;99.90
57390;DHT22;43217;52.694;6.214;2023-08-08T08:51:06;19.60;99.90
57390;DHT22;43217;52.694;6.214;2023-08-08T08:53:32;19.60;99.90
57390;DHT22;43217;52.694;6.214;2023-08-08T08:56:01;19.60;99.90
57390;DHT22;43217;52.694;6.214;2023-08-08T08:58:27;19.50;99.90
57390;DHT22;43217;52.694;6.214;2023-08-08T09:00:54;19.60;99.90
57390;DHT22;43217;52.694;6.214;2023-08-08T09:03:20;19.90;99.90
57390;DHT22;43217;52.694;6.214;2023-08-08T09:05:46;20.00;99.90
57390;DHT22;43217;52.694;6.214;2023-08-08T09:08:13;20.00;99.90
57390;DHT22;43217;52.694;6.214;2023-08-08T09:10:40;19.90;99.90
57390;DHT22;43217;52.694;6.214;2023-08-08T09:13:06;19.80;99.90
57390;DHT22;43217;52.694;6.214;2023-08-08T09:15:33;19.70;99.90
57390;DHT22;43217;52.694;6.214;2023-08-08T09:17:59;19.50;99.90
57390;DHT22;43217;52.694;6.214;2023-08-08T09:20:26;19.30;99.90
57390;DHT22;43217;52.694;6.214;2023-08-08T09:22:53;19.00;99.90
57390;DHT22;43217;52.694;6.214;2023-08-08T09:25:19;18.90;99.90
57390;DHT22;43217;52.694;6.214;2023-08-08T09:27:45;19.00;99.90
57390;DHT22;43217;52.694;6.214;2023-08-08T09:30:11;19.10;99.90
57390;DHT22;43217;52.694;6.214;2023-08-08T09:32:39;19.60;99.90
57390;DHT22;43217;52.694;6.214;2023-08-08T09:35:05;20.10;99.90
57390;DHT22;43217;52.694;6.214;2023-08-08T09:37:35;20.40;99.90
57390;DHT22;43217;52.694;6.214;2023-08-08T09:40:01;20.40;99.90
57390;DHT22;43217;52.694;6.214;2023-08-08T09:42:29;20.30;99.90
57390;DHT22;43217;52.694;6.214;2023-08-08T09:44:58;20.10;99.90
57390;DHT22;43217;52.694;6.214;2023-08-08T09:47:25;20.00;99.90
57390;DHT22;43217;52.694;6.214;2023-08-08T09:50:00;19.90;99.90
57390;DHT22;43217;52.694;6.214;2023-08-08T09:52:27;19.70;99.90
57390;DHT22;43217;52.694;6.214;2023-08-08T09:54:54;19.60;99.90
57390;DHT22;43217;52.694;6.214;2023-08-08T09:57:21;19.50;99.90
57390;DHT22;43217;52.694;6.214;2023-08-08T09:59:47;19.60;99.90
57390;DHT22;43217;52.694;6.214;2023-08-08T10:02:14;19.90;99.90
57390;DHT22;43217;52.694;6.214;2023-08-08T10:04:45;20.10;99.90
57390;DHT22;43217;52.694;6.214;2023-08-08T10:07:10;20.00;99.90
57390;DHT22;43217;52.694;6.214;2023-08-08T10:09:36;19.70;99.90
57390;DHT22;43217;52.694;6.214;2023-08-08T10:12:05;19.60;99.90
57390;DHT22;43217;52.694;6.214;2023-08-08T10:14:34;19.60;99.90
57390;DHT22;43217;52.694;6.214;2023-08-08T10:17:02;19.70;99.90
57390;DHT22;43217;52.694;6.214;2023-08-08T10:19:28;19.80;99.90
57390;DHT22;43217;52.694;6.214;2023-08-08T10:22:04;19.70;99.90
57390;DHT22;43217;52.694;6.214;2023-08-08T10:24:34;19.40;99.90
57390;DHT22;43217;52.694;6.214;2023-08-08T10:27:04;19.10;99.90
57390;DHT22;43217;52.694;6.214;2023-08-08T10:29:32;18.90;99.90
57390;DHT22;43217;52.694;6.214;2023-08-08T10:32:06;18.60;99.90
57390;DHT22;43217;52.694;6.214;2023-08-08T10:34:42;18.40;99.90
57390;DHT22;43217;52.694;6.214;2023-08-08T10:37:16;18.40;99.90
57390;DHT22;43217;52.694;6.214;2023-08-08T10:39:53;18.40;99.90
57390;DHT22;43217;52.694;6.214;2023-08-08T10:42:20;18.50;99.90
57390;DHT22;43217;52.694;6.214;2023-08-08T10:44:56;18.70;99.90
57390;DHT22;43217;52.694;6.214;2023-08-08T10:47:42;19.00;99.90
57390;DHT22;43217;52.694;6.214;2023-08-08T10:50:15;19.10;99.90
57390;DHT22;43217;52.694;6.214;2023-08-08T10:58:07;18.80;99.90
57390;DHT22;43217;52.694;6.214;2023-08-08T11:00:35;18.60;99.90
57390;DHT22;43217;52.694;6.214;2023-08-08T11:03:03;18.50;99.90
57390;DHT22;43217;52.694;6.214;2023-08-08T11:05:35;18.50;99.90
57390;DHT22;43217;52.694;6.214;2023-08-08T11:08:03;18.60;99.90
57390;DHT22;43217;52.694;6.214;2023-08-08T11:10:34;18.70;99.90
57390;DHT22;43217;52.694;6.214;2023-08-08T11:13:02;18.70;99.90
57390;DHT22;43217;52.694;6.214;2023-08-08T11:15:29;18.70;99.90
57390;DHT22;43217;52.694;6.214;2023-08-08T11:17:56;18.90;99.90
57390;DHT22;43217;52.694;6.214;2023-08-08T11:20:23;18.90;99.90
57390;DHT22;43217;52.694;6.214;2023-08-08T11:22:53;18.80;99.90
57390;DHT22;43217;52.694;6.214;2023-08-08T11:25:19;18.60;99.90
57390;DHT22;43217;52.694;6.214;2023-08-08T11:27:49;18.40;99.90
57390;DHT22;43217;52.694;6.214;2023-08-08T11:30:16;18.20;99.90
57390;DHT22;43217;52.694;6.214;2023-08-08T11:32:42;17.90;99.90
57390;DHT22;43217;52.694;6.214;2023-08-08T11:35:07;17.70;99.90
57390;DHT22;43217;52.694;6.214;2023-08-08T11:37:33;17.60;99.90
57390;DHT22;43217;52.694;6.214;2023-08-08T11:39:59;17.60;99.90
57390;DHT22;43217;52.694;6.214;2023-08-08T11:42:26;17.70;99.90
57390;DHT22;43217;52.694;6.214;2023-08-08T11:44:52;17.90;99.90
57390;DHT22;43217;52.694;6.214;2023-08-08T11:47:23;18.00;99.90
57390;DHT22;43217;52.694;6.214;2023-08-08T11:49:51;18.30;99.90
57390;DHT22;43217;52.694;6.214;2023-08-08T11:52:18;18.70;99.90
57390;DHT22;43217;52.694;6.214;2023-08-08T11:54:44;19.10;99.90
57390;DHT22;43217;52.694;6.214;2023-08-08T11:57:10;19.30;99.90
57390;DHT22;43217;52.694;6.214;2023-08-08T11:59:35;19.30;99.90
57390;DHT22;43217;52.694;6.214;2023-08-08T12:02:01;19.00;99.90
57390;DHT22;43217;52.694;6.214;2023-08-08T12:04:27;18.80;99.90
57390;DHT22;43217;52.694;6.214;2023-08-08T12:07:01;18.70;99.90
57390;DHT22;43217;52.694;6.214;2023-08-08T12:09:33;19.00;99.90
57390;DHT22;43217;52.694;6.214;2023-08-08T12:12:01;19.10;99.90
57390;DHT22;43217;52.694;6.214;2023-08-08T12:14:27;18.90;99.90
57390;DHT22;43217;52.694;6.214;2023-08-08T12:16:53;18.90;99.90
57390;DHT22;43217;52.694;6.214;2023-08-08T12:19:23;18.80;99.90
57390;DHT22;43217;52.694;6.214;2023-08-08T12:21:50;18.80;99.90
57390;DHT22;43217;52.694;6.214;2023-08-08T12:24:18;18.70;99.90
57390;DHT22;43217;52.694;6.214;2023-08-08T12:26:44;18.60;99.90
57390;DHT22;43217;52.694;6.214;2023-08-08T12:29:09;18.40;99.90
57390;DHT22;43217;52.694;6.214;2023-08-08T12:31:35;18.20;99.90
57390;DHT22;43217;52.694;6.214;2023-08-08T12:34:01;17.90;99.90
57390;DHT22;43217;52.694;6.214;2023-08-08T12:36:26;17.80;99.90
57390;DHT22;43217;52.694;6.214;2023-08-08T12:38:52;17.80;99.90
57390;DHT22;43217;52.694;6.214;2023-08-08T12:41:18;17.90;99.90
57390;DHT22;43217;52.694;6.214;2023-08-08T12:43:43;18.10;99.90
57390;DHT22;43217;52.694;6.214;2023-08-08T12:46:09;18.10;99.90
57390;DHT22;43217;52.694;6.214;2023-08-08T12:48:36;18.10;99.90
57390;DHT22;43217;52.694;6.214;2023-08-08T12:51:02;18.00;99.90
57390;DHT22;43217;52.694;6.214;2023-08-08T12:53:27;17.90;99.90
57390;DHT22;43217;52.694;6.214;2023-08-08T12:55:53;17.80;99.90
57390;DHT22;43217;52.694;6.214;2023-08-08T12:58:19;17.80;99.90
57390;DHT22;43217;52.694;6.214;2023-08-08T13:00:44;17.80;99.90
57390;DHT22;43217;52.694;6.214;2023-08-08T13:03:10;17.80;99.90
57390;DHT22;43217;52.694;6.214;2023-08-08T13:05:38;17.70;99.90
57390;DHT22;43217;52.694;6.214;2023-08-08T13:08:04;17.70;99.90
57390;DHT22;43217;52.694;6.214;2023-08-08T13:10:30;17.80;99.90
57390;DHT22;43217;52.694;6.214;2023-08-08T13:12:56;17.90;99.90
57390;DHT22;43217;52.694;6.214;2023-08-08T13:15:21;18.00;99.90
57390;DHT22;43217;52.694;6.214;2023-08-08T13:17:47;18.10;99.90
57390;DHT22;43217;52.694;6.214;2023-08-08T13:20:13;18.10;99.90
57390;DHT22;43217;52.694;6.214;2023-08-08T13:22:39;18.20;99.90
57390;DHT22;43217;52.694;6.214;2023-08-08T13:25:05;18.20;99.90
57390;DHT22;43217;52.694;6.214;2023-08-08T13:27:31;18.20;99.90
57390;DHT22;43217;52.694;6.214;2023-08-08T13:29:57;18.10;99.90
57390;DHT22;43217;52.694;6.214;2023-08-08T13:32:23;18.10;99.90
57390;DHT22;43217;52.694;6.214;2023-08-08T13:34:49;18.10;99.90
57390;DHT22;43217;52.694;6.214;2023-08-08T13:37:16;18.20;99.90
57390;DHT22;43217;52.694;6.214;2023-08-08T13:39:41;18.20;99.90
57390;DHT22;43217;52.694;6.214;2023-08-08T13:42:09;18.10;99.90
57390;DHT22;43217;52.694;6.214;2023-08-08T13:44:34;18.10;99.90
57390;DHT22;43217;52.694;6.214;2023-08-08T13:47:00;18.20;99.90
57390;DHT22;43217;52.694;6.214;2023-08-08T13:49:26;18.30;99.90
57390;DHT22;43217;52.694;6.214;2023-08-08T13:51:53;18.30;99.90
57390;DHT22;43217;52.694;6.214;2023-08-08T13:54:19;18.30;99.90
57390;DHT22;43217;52.694;6.214;2023-08-08T13:56:45;18.40;99.90
57390;DHT22;43217;52.694;6.214;2023-08-08T13:59:11;18.40;99.90
57390;DHT22;43217;52.694;6.214;2023-08-08T14:01:36;18.40;99.90
57390;DHT22;43217;52.694;6.214;2023-08-08T14:04:02;18.40;99.90
57390;DHT22;43217;52.694;6.214;2023-08-08T14:06:28;18.40;99.90
57390;DHT22;43217;52.694;6.214;2023-08-08T14:08:54;18.40;99.90
57390;DHT22;43217;52.694;6.214;2023-08-08T14:11:20;18.50;99.90
57390;DHT22;43217;52.694;6.214;2023-08-08T14:13:45;18.60;99.90
57390;DHT22;43217;52.694;6.214;2023-08-08T14:16:11;18.60;99.90
57390;DHT22;43217;52.694;6.214;2023-08-08T14:18:37;18.70;99.90
57390;DHT22;43217;52.694;6.214;2023-08-08T14:21:03;18.70;99.90
57390;DHT22;43217;52.694;6.214;2023-08-08T14:23:30;18.70;99.90
57390;DHT22;43217;52.694;6.214;2023-08-08T14:25:56;18.80;99.90
57390;DHT22;43217;52.694;6.214;2023-08-08T14:28:21;18.90;99.90
57390;DHT22;43217;52.694;6.214;2023-08-08T14:30:49;18.90;99.90
57390;DHT22;43217;52.694;6.214;2023-08-08T14:33:16;18.80;99.90
57390;DHT22;43217;52.694;6.214;2023-08-08T14:35:42;18.70;99.90
57390;DHT22;43217;52.694;6.214;2023-08-08T14:38:08;18.70;99.90
57390;DHT22;43217;52.694;6.214;2023-08-08T14:40:34;18.70;99.90
57390;DHT22;43217;52.694;6.214;2023-08-08T14:43:02;18.60;99.90
57390;DHT22;43217;52.694;6.214;2023-08-08T14:45:31;18.40;99.90
57390;DHT22;43217;52.694;6.214;2023-08-08T14:47:57;18.40;99.90
57390;DHT22;43217;52.694;6.214;2023-08-08T14:50:23;18.30;99.90
57390;DHT22;43217;52.694;6.214;2023-08-08T14:52:49;18.30;99.90
57390;DHT22;43217;52.694;6.214;2023-08-08T14:55:14;18.20;99.90
57390;DHT22;43217;52.694;6.214;2023-08-08T14:57:40;18.20;99.90
57390;DHT22;43217;52.694;6.214;2023-08-08T15:00:07;18.30;99.90
57390;DHT22;43217;52.694;6.214;2023-08-08T15:02:34;18.50;99.90
57390;DHT22;43217;52.694;6.214;2023-08-08T15:05:00;18.60;99.90
57390;DHT22;43217;52.694;6.214;2023-08-08T15:07:25;18.70;99.90
57390;DHT22;43217;52.694;6.214;2023-08-08T15:09:51;18.80;99.90
57390;DHT22;43217;52.694;6.214;2023-08-08T15:12:17;18.80;99.90
57390;DHT22;43217;52.694;6.214;2023-08-08T15:14:43;18.70;99.90
57390;DHT22;43217;52.694;6.214;2023-08-08T15:17:09;18.70;99.90
57390;DHT22;43217;52.694;6.214;2023-08-08T15:19:35;18.60;99.90
57390;DHT22;43217;52.694;6.214;2023-08-08T15:22:00;18.70;99.90
57390;DHT22;43217;52.694;6.214;2023-08-08T15:24:26;18.70;99.90
57390;DHT22;43217;52.694;6.214;2023-08-08T15:26:52;18.70;99.90
57390;DHT22;43217;52.694;6.214;2023-08-08T15:29:18;18.60;99.90
57390;DHT22;43217;52.694;6.214;2023-08-08T15:31:43;18.70;99.90
57390;DHT22;43217;52.694;6.214;2023-08-08T15:34:09;18.70;99.90